GVA weather

Geneva Cointrin International Airport
Geneva, Canton of Geneva, Switzerland

Public forecast

Using degrees Celsius for public forecast. Weather courtesy of forecast.io.

METAR (pilot weather report)

Retrieved 2019/03/20 03:20 UTC (3 minutes ago):

LSGG 200320Z AUTO 05009KT CAVOK 05/M02 Q1028 NOSIG

TAF (pilot weather forecast)

Retrieved 2019/03/20 03:36 UTC (0 seconds ago):

TAF LSGG 200225Z 2003/2109 05008KT CAVOK TX11/2015Z TN04/2006Z TN00/2106Z BECMG 2008/2010 05015G25KT BECMG 2020/2022 05007KT